Time;durP1;ratioP1;P1;durP2;ratioP2;P2;SDS_P1;SDS_P2;PMS_P1;PMS_P2;Temp;Humidity;BMP_temperature;BMP_pressure;BME280_temperature;BME280_humidity;BME280_pressure;Samples;Min_cycle;Max_cycle;Signal;HPM_P1;HPM_P2
2020/12/06 00:00:11;;;;;;;63.45;36.92;;;3.60;99.90;;;;;;5050563;28;20041;-74
2020/12/06 00:02:37;;;;;;;69.38;36.55;;;3.70;99.90;;;;;;5050439;28;20029;-75
2020/12/06 00:05:09;;;;;;;63.10;37.72;;;3.70;99.90;;;;;;5053109;28;20149;-74
2020/12/06 00:07:38;;;;;;;70.70;38.25;;;3.70;99.90;;;;;;5036490;28;20087;-74
2020/12/06 00:10:06;;;;;;;68.65;38.03;;;3.80;99.90;;;;;;5053182;28;20369;-74
2020/12/06 00:12:38;;;;;;;71.85;38.05;;;3.70;99.90;;;;;;5054108;28;20040;-74
2020/12/06 00:15:07;;;;;;;67.97;38.28;;;3.80;99.90;;;;;;5054349;28;20017;-74
2020/12/06 00:17:33;;;;;;;64.72;38.97;;;3.80;99.90;;;;;;5036258;28;20053;-72
2020/12/06 00:19:59;;;;;;;72.03;39.22;;;3.80;99.90;;;;;;5054392;28;20072;-74
2020/12/06 00:22:25;;;;;;;72.07;38.63;;;3.90;99.90;;;;;;5036593;28;20028;-74
2020/12/06 00:24:51;;;;;;;68.95;39.78;;;3.80;99.90;;;;;;5054033;28;20476;-74
2020/12/06 00:27:17;;;;;;;66.43;36.58;;;3.90;99.90;;;;;;5054228;28;20364;-74
2020/12/06 00:29:43;;;;;;;65.95;36.33;;;3.90;99.90;;;;;;5054158;28;20028;-74
2020/12/06 00:32:09;;;;;;;61.72;35.75;;;3.90;99.90;;;;;;5052710;28;20021;-72
2020/12/06 00:34:34;;;;;;;60.30;35.38;;;4.00;99.90;;;;;;5054011;28;20477;-74
2020/12/06 00:37:00;;;;;;;61.65;35.05;;;4.10;99.90;;;;;;5053897;28;20100;-74
2020/12/06 00:39:26;;;;;;;55.47;33.78;;;4.00;99.90;;;;;;5054462;28;20028;-75
2020/12/06 00:41:52;;;;;;;56.58;33.20;;;4.10;99.90;;;;;;5054353;28;20032;-74
2020/12/06 00:44:17;;;;;;;60.47;33.47;;;3.90;99.90;;;;;;5036493;28;20025;-74
2020/12/06 00:46:44;;;;;;;60.08;33.53;;;3.90;99.90;;;;;;5053892;28;20370;-74
2020/12/06 00:49:10;;;;;;;56.10;32.17;;;4.10;99.90;;;;;;5053688;28;20025;-74
2020/12/06 00:51:35;;;;;;;56.13;32.47;;;4.00;99.90;;;;;;5053776;28;20036;-74
2020/12/06 00:54:01;;;;;;;61.70;35.17;;;4.10;99.90;;;;;;5053702;28;20017;-74
2020/12/06 00:56:27;;;;;;;57.00;33.95;;;4.00;99.90;;;;;;5053606;28;20017;-75
2020/12/06 00:58:53;;;;;;;60.92;34.15;;;4.10;99.90;;;;;;5035592;28;20071;-72
2020/12/06 01:01:19;;;;;;;55.75;33.45;;;4.20;99.90;;;;;;5035598;28;20106;-74
2020/12/06 01:03:45;;;;;;;56.55;33.60;;;4.10;99.90;;;;;;5053366;28;20017;-74
2020/12/06 01:06:18;;;;;;;57.10;33.90;;;4.00;99.90;;;;;;5035578;28;20583;-74
2020/12/06 01:08:45;;;;;;;67.82;35.75;;;3.90;99.90;;;;;;5035282;28;20568;-74
2020/12/06 01:11:14;;;;;;;58.75;33.67;;;3.60;99.90;;;;;;5053398;28;20028;-74
2020/12/06 01:13:41;;;;;;;61.63;35.70;;;3.30;99.90;;;;;;5053033;28;20079;-74
2020/12/06 01:16:07;;;;;;;64.57;35.75;;;3.20;99.90;;;;;;5052562;28;20025;-75
2020/12/06 01:18:33;;;;;;;64.70;34.92;;;3.30;99.90;;;;;;5035239;28;20021;-74
2020/12/06 01:20:59;;;;;;;54.85;30.73;;;3.50;99.90;;;;;;5053288;28;20382;-74
2020/12/06 01:23:25;;;;;;;52.65;30.08;;;3.70;99.90;;;;;;5052895;28;20357;-74
2020/12/06 01:25:50;;;;;;;48.22;29.17;;;3.70;99.90;;;;;;5053037;28;20074;-74
2020/12/06 01:28:17;;;;;;;50.20;28.45;;;3.80;99.90;;;;;;5051778;28;20477;-74
2020/12/06 01:30:43;;;;;;;44.50;27.35;;;3.90;99.90;;;;;;5035156;28;20369;-74
2020/12/06 01:33:10;;;;;;;44.30;26.48;;;3.90;99.90;;;;;;5051637;28;20029;-74
2020/12/06 01:35:36;;;;;;;46.58;27.25;;;3.70;99.90;;;;;;5051492;28;20499;-75
2020/12/06 01:38:02;;;;;;;46.10;27.77;;;3.60;99.90;;;;;;5035045;28;20024;-74
2020/12/06 01:40:28;;;;;;;45.30;28.98;;;3.80;99.90;;;;;;5052572;28;20021;-74
2020/12/06 01:42:54;;;;;;;42.55;25.05;;;3.90;99.90;;;;;;5035046;28;20047;-75
2020/12/06 01:45:20;;;;;;;41.90;24.65;;;4.20;99.90;;;;;;5053818;28;20028;-75
2020/12/06 01:47:46;;;;;;;43.70;25.08;;;4.30;99.90;;;;;;5052848;28;20472;-75
2020/12/06 01:50:15;;;;;;;39.10;24.02;;;4.40;99.90;;;;;;5052467;28;20035;-76
2020/12/06 01:52:41;;;;;;;42.38;24.40;;;4.40;99.90;;;;;;5034681;28;20045;-75
2020/12/06 01:55:12;;;;;;;35.40;20.38;;;4.60;99.90;;;;;;5034264;28;20025;-75
2020/12/06 01:57:38;;;;;;;29.80;19.58;;;4.70;99.90;;;;;;5052931;28;20013;-75
2020/12/06 02:00:07;;;;;;;34.28;19.80;;;4.80;99.90;;;;;;5052491;28;20021;-75
2020/12/06 02:02:34;;;;;;;32.88;19.77;;;4.80;99.90;;;;;;5052511;28;20052;-75
2020/12/06 02:05:01;;;;;;;37.45;22.25;;;4.80;99.90;;;;;;5052208;28;20108;-76
2020/12/06 02:07:32;;;;;;;35.42;21.50;;;4.80;99.90;;;;;;5034530;28;20029;-76
2020/12/06 02:09:59;;;;;;;30.50;17.08;;;4.70;99.90;;;;;;5052254;28;20103;-76
2020/12/06 02:12:24;;;;;;;17.13;11.50;;;4.80;99.90;;;;;;5052288;28;20029;-76
2020/12/06 02:14:50;;;;;;;24.20;15.27;;;5.00;99.90;;;;;;5051969;28;20039;-75
2020/12/06 02:17:16;;;;;;;35.70;21.65;;;5.10;99.90;;;;;;5052306;28;20469;-75
2020/12/06 02:19:42;;;;;;;36.38;20.75;;;5.00;99.90;;;;;;5052113;28;20032;-76
2020/12/06 02:22:08;;;;;;;37.15;22.65;;;4.90;99.90;;;;;;5052091;28;20112;-75
2020/12/06 02:24:33;;;;;;;39.85;23.77;;;4.90;99.90;;;;;;5034376;28;20027;-75
2020/12/06 02:26:59;;;;;;;39.20;22.85;;;4.90;99.90;;;;;;5051559;28;20108;-75
2020/12/06 02:29:25;;;;;;;44.83;25.50;;;4.80;99.90;;;;;;5052295;28;20021;-76
2020/12/06 02:31:51;;;;;;;44.70;24.52;;;4.70;99.90;;;;;;5034451;28;20432;-75
2020/12/06 02:34:17;;;;;;;44.67;26.80;;;4.80;99.90;;;;;;5051901;28;20025;-76
2020/12/06 02:36:42;;;;;;;38.67;24.00;;;4.90;99.90;;;;;;5052040;28;20028;-76
2020/12/06 02:39:10;;;;;;;42.50;24.98;;;4.90;99.90;;;;;;5052005;28;20083;-76
2020/12/06 02:41:41;;;;;;;40.72;23.25;;;4.90;99.90;;;;;;5051426;28;20021;-75
2020/12/06 02:44:08;;;;;;;33.92;20.75;;;5.00;99.90;;;;;;5033827;28;20029;-76
2020/12/06 02:46:34;;;;;;;38.60;23.30;;;4.90;99.90;;;;;;5050160;28;20031;-76
2020/12/06 02:49:00;;;;;;;36.63;22.33;;;5.00;99.90;;;;;;5051490;28;20469;-76
2020/12/06 02:51:26;;;;;;;36.83;22.58;;;5.00;99.90;;;;;;5033338;28;20025;-75
2020/12/06 02:53:53;;;;;;;35.75;20.92;;;5.00;99.90;;;;;;5051389;28;20029;-76
2020/12/06 02:56:19;;;;;;;35.38;20.15;;;4.90;99.90;;;;;;5049880;28;20070;-76
2020/12/06 02:58:44;;;;;;;48.30;21.63;;;4.90;99.90;;;;;;5051642;28;20415;-74
2020/12/06 03:01:10;;;;;;;25.10;16.48;;;4.90;99.90;;;;;;5033379;28;20033;-75
2020/12/06 03:03:37;;;;;;;13.13;8.20;;;5.00;99.90;;;;;;5033356;28;20401;-75
2020/12/06 03:06:03;;;;;;;19.05;9.50;;;5.30;99.90;;;;;;5033077;28;20029;-75
2020/12/06 03:08:29;;;;;;;17.88;11.20;;;5.50;99.90;;;;;;5051181;28;20392;-76
2020/12/06 03:10:55;;;;;;;30.85;18.05;;;5.60;99.90;;;;;;5051185;28;20021;-75
2020/12/06 03:13:21;;;;;;;33.17;20.40;;;5.60;99.90;;;;;;5033090;28;20029;-76
2020/12/06 03:15:46;;;;;;;33.80;20.02;;;5.50;99.90;;;;;;5050985;28;20021;-75
2020/12/06 03:18:12;;;;;;;35.58;22.20;;;5.40;99.90;;;;;;5033170;28;20055;-76
2020/12/06 03:20:38;;;;;;;35.05;19.48;;;5.40;99.90;;;;;;5050926;28;20027;-76
2020/12/06 03:23:03;;;;;;;40.65;21.45;;;5.20;99.90;;;;;;5050765;28;20039;-75
2020/12/06 03:25:29;;;;;;;39.75;21.25;;;5.00;99.90;;;;;;5032937;28;20025;-76
2020/12/06 03:27:55;;;;;;;35.92;20.15;;;5.00;99.90;;;;;;5032936;28;20074;-75
2020/12/06 03:30:20;;;;;;;36.67;21.48;;;5.10;99.90;;;;;;5033018;28;20392;-75
2020/12/06 03:32:46;;;;;;;35.65;21.42;;;5.10;99.90;;;;;;5051068;28;20021;-76
2020/12/06 03:35:12;;;;;;;34.38;20.42;;;5.20;99.90;;;;;;5050487;28;20017;-76
2020/12/06 03:37:37;;;;;;;32.03;20.08;;;5.30;99.90;;;;;;5050526;28;20021;-76
2020/12/06 03:40:04;;;;;;;37.08;20.55;;;5.50;99.90;;;;;;5050801;28;20052;-75
2020/12/06 03:42:29;;;;;;;30.40;18.70;;;5.50;99.90;;;;;;5050358;28;20052;-75
2020/12/06 03:44:55;;;;;;;37.95;21.65;;;5.50;99.90;;;;;;5050663;28;20029;-76
2020/12/06 03:47:21;;;;;;;30.08;19.92;;;5.40;99.90;;;;;;5050532;28;20052;-76
2020/12/06 03:49:47;;;;;;;32.38;19.55;;;5.30;99.90;;;;;;5050715;28;20025;-76
2020/12/06 03:52:13;;;;;;;34.35;19.55;;;5.30;99.90;;;;;;5050756;28;20024;-76
2020/12/06 03:54:38;;;;;;;27.55;17.17;;;5.40;99.90;;;;;;5032507;28;20025;-75
2020/12/06 03:57:04;;;;;;;25.33;17.08;;;5.40;99.90;;;;;;5049432;28;20052;-75
2020/12/06 03:59:30;;;;;;;22.88;15.23;;;5.50;99.90;;;;;;5050460;28;20411;-75
2020/12/06 04:01:56;;;;;;;24.50;15.18;;;5.60;99.90;;;;;;5050681;28;20032;-75
2020/12/06 04:04:21;;;;;;;26.17;16.00;;;5.60;99.90;;;;;;5050317;28;20025;-75
2020/12/06 04:06:47;;;;;;;22.23;13.63;;;5.70;99.90;;;;;;5050768;28;20166;-76
2020/12/06 04:09:13;;;;;;;24.13;15.25;;;5.60;99.90;;;;;;5050890;28;20021;-76
2020/12/06 04:11:38;;;;;;;23.48;15.02;;;5.70;99.90;;;;;;5050447;28;20029;-76
2020/12/06 04:14:04;;;;;;;25.50;15.85;;;5.80;99.90;;;;;;5050577;28;20389;-75
2020/12/06 04:16:30;;;;;;;24.63;14.68;;;5.70;99.90;;;;;;5033114;28;20040;-75
2020/12/06 04:18:56;;;;;;;19.95;11.52;;;5.70;99.90;;;;;;5033144;28;20112;-76
2020/12/06 04:21:21;;;;;;;15.60;9.70;;;5.70;99.90;;;;;;5050828;28;20028;-76
2020/12/06 04:23:47;;;;;;;15.68;10.10;;;5.80;99.90;;;;;;5050434;28;20029;-76
2020/12/06 04:26:13;;;;;;;20.25;10.50;;;5.90;99.90;;;;;;5050319;28;20021;-76
2020/12/06 04:28:39;;;;;;;17.58;11.23;;;5.80;99.90;;;;;;5050389;28;20111;-76
2020/12/06 04:31:04;;;;;;;18.48;11.25;;;5.90;99.90;;;;;;5050318;28;20385;-76
2020/12/06 04:33:30;;;;;;;16.63;9.90;;;5.70;99.90;;;;;;5032324;28;20025;-76
2020/12/06 04:35:56;;;;;;;4.22;3.20;;;5.60;99.90;;;;;;5032218;28;20028;-75
2020/12/06 04:38:21;;;;;;;4.20;2.97;;;5.80;99.90;;;;;;5050115;28;20023;-75
2020/12/06 04:40:47;;;;;;;3.42;2.45;;;6.10;99.90;;;;;;5049974;28;20116;-76
2020/12/06 04:43:14;;;;;;;3.40;2.40;;;6.30;99.90;;;;;;5050619;28;20044;-75
2020/12/06 04:45:42;;;;;;;2.60;1.67;;;6.40;99.90;;;;;;5049967;28;20032;-75
2020/12/06 04:48:09;;;;;;;0.75;0.75;;;6.60;99.90;;;;;;5050170;28;20511;-75
2020/12/06 04:50:37;;;;;;;0.98;0.70;;;6.90;99.90;;;;;;5051619;28;20550;-75
2020/12/06 04:53:05;;;;;;;0.82;0.57;;;7.20;99.90;;;;;;5053584;28;20021;-75
2020/12/06 04:55:35;;;;;;;0.80;0.63;;;7.40;99.90;;;;;;5035593;28;20098;-75
2020/12/06 04:58:04;;;;;;;4.03;2.13;;;7.50;99.90;;;;;;5053648;28;20415;-75
2020/12/06 05:00:35;;;;;;;6.97;5.10;;;7.50;99.90;;;;;;5053649;28;20028;-76
2020/12/06 05:03:09;;;;;;;13.53;6.50;;;7.00;99.90;;;;;;5054747;28;20064;-76
2020/12/06 05:05:39;;;;;;;13.82;8.65;;;6.80;99.90;;;;;;5053179;28;20081;-75
2020/12/06 05:08:10;;;;;;;14.88;9.48;;;6.60;99.90;;;;;;5053713;28;20025;-75
2020/12/06 05:10:46;;;;;;;13.55;9.25;;;6.50;99.90;;;;;;5035455;28;20082;-75
2020/12/06 05:13:13;;;;;;;12.68;8.68;;;6.40;99.90;;;;;;5035377;28;20028;-76
2020/12/06 05:15:39;;;;;;;11.18;7.32;;;6.20;99.90;;;;;;5035141;28;20523;-75
2020/12/06 05:18:05;;;;;;;15.18;10.45;;;6.10;99.90;;;;;;5053279;28;20017;-76
2020/12/06 05:20:32;;;;;;;15.70;10.13;;;6.10;99.90;;;;;;5035266;28;20025;-76
2020/12/06 05:22:58;;;;;;;19.83;12.23;;;5.90;99.90;;;;;;5053443;28;20480;-76
2020/12/06 05:25:24;;;;;;;25.60;15.30;;;5.90;99.90;;;;;;5035032;28;20028;-75
2020/12/06 05:27:50;;;;;;;32.83;19.98;;;5.80;99.90;;;;;;5053554;28;20025;-76
2020/12/06 05:30:16;;;;;;;32.85;21.67;;;5.60;99.90;;;;;;5052855;28;20472;-76
2020/12/06 05:32:42;;;;;;;40.60;23.70;;;5.40;99.90;;;;;;5052926;28;20029;-76
2020/12/06 05:35:11;;;;;;;37.60;22.75;;;5.20;99.90;;;;;;5052919;28;20017;-75
2020/12/06 05:37:37;;;;;;;39.97;23.27;;;5.20;99.90;;;;;;5052793;28;20025;-75
2020/12/06 05:40:11;;;;;;;41.75;25.10;;;4.90;99.90;;;;;;5035099;28;20021;-75
2020/12/06 05:42:41;;;;;;;39.05;23.95;;;4.70;99.90;;;;;;5074156;22;20132;-74
2020/12/06 05:45:08;;;;;;;40.20;24.73;;;4.50;99.90;;;;;;5072761;28;20048;-73
2020/12/06 05:47:34;;;;;;;43.40;24.60;;;4.30;99.90;;;;;;5054882;28;20035;-74
2020/12/06 05:50:00;;;;;;;37.58;24.48;;;4.20;99.90;;;;;;5072820;28;20074;-73
2020/12/06 05:52:32;;;;;;;38.17;25.25;;;4.10;99.90;;;;;;5038095;28;20032;-73
2020/12/06 05:54:59;;;;;;;39.50;25.60;;;4.10;99.90;;;;;;5072745;28;20096;-73
2020/12/06 05:57:30;;;;;;;37.03;24.05;;;4.00;99.90;;;;;;5072814;28;20043;-73
2020/12/06 05:59:57;;;;;;;35.65;23.50;;;4.10;99.90;;;;;;5073257;28;20470;-73
2020/12/06 06:02:24;;;;;;;34.28;21.20;;;4.20;99.90;;;;;;5072847;28;20060;-73
2020/12/06 06:04:51;;;;;;;32.75;21.33;;;4.40;99.90;;;;;;5072717;28;20016;-74
2020/12/06 06:07:22;;;;;;;32.58;20.10;;;4.50;99.90;;;;;;5072666;28;20024;-73
2020/12/06 06:09:53;;;;;;;31.45;21.67;;;4.70;99.90;;;;;;5038072;28;20032;-73
2020/12/06 06:12:24;;;;;;;35.08;21.60;;;4.80;99.90;;;;;;5072275;28;20048;-73
2020/12/06 06:15:00;;;;;;;33.28;21.65;;;4.80;99.90;;;;;;5072248;28;20036;-73
2020/12/06 06:17:30;;;;;;;32.83;20.58;;;4.80;99.90;;;;;;5054365;28;20051;-73
2020/12/06 06:19:56;;;;;;;33.20;20.73;;;4.80;99.90;;;;;;5072366;28;20032;-74
2020/12/06 06:22:40;;;;;;;32.75;21.15;;;4.60;99.90;;;;;;5071968;28;20024;-73
2020/12/06 06:25:07;;;;;;;35.28;21.55;;;4.60;99.90;;;;;;5071838;28;20024;-73
2020/12/06 06:27:35;;;;;;;34.60;23.35;;;4.50;99.90;;;;;;5071849;28;20031;-73
2020/12/06 06:30:04;;;;;;;34.50;23.45;;;4.40;99.90;;;;;;5071802;28;20021;-73
2020/12/06 06:32:31;;;;;;;32.97;22.08;;;4.20;99.90;;;;;;5071613;28;20499;-74
2020/12/06 06:34:57;;;;;;;36.58;23.25;;;4.10;99.90;;;;;;5053698;28;20024;-73
2020/12/06 06:37:29;;;;;;;32.33;21.98;;;3.90;99.90;;;;;;5071484;28;20017;-73
2020/12/06 06:39:59;;;;;;;32.65;21.80;;;3.70;99.90;;;;;;5071787;28;20081;-73
2020/12/06 06:42:26;;;;;;;36.90;22.75;;;3.60;99.90;;;;;;5071399;28;20401;-73
2020/12/06 06:45:01;;;;;;;33.45;22.42;;;3.50;99.90;;;;;;5071507;28;20020;-74
2020/12/06 06:47:29;;;;;;;35.72;23.63;;;3.60;99.90;;;;;;5071903;28;20024;-73
2020/12/06 06:49:59;;;;;;;33.17;20.17;;;3.50;99.90;;;;;;5071751;28;20052;-73
2020/12/06 06:52:27;;;;;;;33.90;21.75;;;3.40;99.90;;;;;;5071431;28;20055;-73
2020/12/06 06:54:54;;;;;;;30.52;20.55;;;3.40;99.90;;;;;;5053266;28;20028;-74
2020/12/06 06:57:22;;;;;;;33.83;20.80;;;3.50;99.90;;;;;;5049765;28;20496;-73
2020/12/06 06:59:50;;;;;;;35.55;22.20;;;3.30;99.90;;;;;;5053226;28;20534;-73
2020/12/06 07:02:36;;;;;;;34.70;20.75;;;3.30;99.90;;;;;;5053319;28;20395;-73
2020/12/06 07:05:14;;;;;;;32.83;19.35;;;3.20;99.90;;;;;;5053168;28;20058;-73
2020/12/06 07:07:53;;;;;;;35.42;21.13;;;3.10;99.90;;;;;;5071329;28;20021;-73
2020/12/06 07:10:25;;;;;;;37.40;21.88;;;2.90;99.90;;;;;;5052974;28;20028;-74
2020/12/06 07:12:58;;;;;;;42.25;21.55;;;2.80;99.90;;;;;;5052746;28;20021;-73
2020/12/06 07:15:26;;;;;;;46.13;23.45;;;2.70;99.90;;;;;;5070651;28;20027;-73
2020/12/06 07:17:54;;;;;;;101.30;26.80;;;2.50;99.90;;;;;;5070976;28;20055;-73
2020/12/06 07:20:22;;;;;;;72.32;28.10;;;2.30;99.90;;;;;;5052910;28;20070;-73
2020/12/06 07:22:49;;;;;;;60.55;28.27;;;2.20;99.90;;;;;;5070981;28;20467;-73
2020/12/06 07:25:16;;;;;;;67.10;28.90;;;2.30;99.90;;;;;;5070711;28;20058;-73
2020/12/06 07:27:42;;;;;;;93.22;30.88;;;2.20;99.90;;;;;;5070955;28;20052;-73
2020/12/06 07:30:12;;;;;;;63.15;30.50;;;2.40;99.90;;;;;;5070675;28;20028;-73
2020/12/06 07:32:38;;;;;;;67.47;30.00;;;2.60;99.90;;;;;;5070875;28;20387;-73
2020/12/06 07:35:05;;;;;;;76.63;29.98;;;2.70;99.90;;;;;;5070689;28;20123;-73
2020/12/06 07:37:31;;;;;;;71.80;32.03;;;2.80;99.90;;;;;;5070900;28;20071;-73
2020/12/06 07:39:57;;;;;;;77.47;34.40;;;2.70;99.90;;;;;;5052911;28;20418;-73
2020/12/06 07:42:27;;;;;;;85.95;33.42;;;2.80;99.90;;;;;;5052946;28;20086;-73
2020/12/06 07:44:58;;;;;;;93.35;34.42;;;2.80;99.90;;;;;;5070649;28;20488;-73
2020/12/06 07:47:24;;;;;;;104.85;35.97;;;2.80;99.90;;;;;;5052893;28;20449;-74
2020/12/06 07:49:55;;;;;;;82.72;34.08;;;2.80;99.90;;;;;;5053122;28;20394;-73
2020/12/06 07:52:22;;;;;;;88.28;32.85;;;2.80;99.90;;;;;;5070921;28;20391;-73
2020/12/06 07:55:03;;;;;;;80.72;32.78;;;2.90;99.90;;;;;;5071284;28;20475;-73
2020/12/06 07:57:42;;;;;;;80.57;33.15;;;3.10;99.90;;;;;;5070767;28;20037;-73
2020/12/06 08:00:14;;;;;;;91.80;35.83;;;3.10;99.90;;;;;;5052991;28;20016;-73
2020/12/06 08:02:52;;;;;;;86.22;34.60;;;3.10;99.90;;;;;;5070913;28;20103;-73
2020/12/06 08:05:21;;;;;;;68.90;29.15;;;3.10;99.90;;;;;;5070590;28;20476;-73
2020/12/06 08:07:55;;;;;;;73.47;27.88;;;3.00;99.90;;;;;;5070432;28;20419;-74
2020/12/06 08:10:21;;;;;;;74.07;28.38;;;3.00;99.90;;;;;;5070707;28;20040;-73
2020/12/06 08:12:52;;;;;;;67.20;27.48;;;2.90;99.90;;;;;;5070333;28;20071;-73
2020/12/06 08:15:18;;;;;;;57.57;23.60;;;2.90;99.90;;;;;;5052679;28;20112;-74
2020/12/06 08:17:49;;;;;;;78.00;26.73;;;2.90;99.90;;;;;;5070273;28;20107;-73
2020/12/06 08:20:16;;;;;;;68.20;26.10;;;2.80;99.90;;;;;;5052505;28;20071;-73
2020/12/06 08:22:49;;;;;;;63.63;27.60;;;2.80;99.90;;;;;;5076867;28;20024;-73
2020/12/06 08:25:19;;;;;;;63.58;24.10;;;2.90;99.90;;;;;;5056323;28;20044;-73
2020/12/06 08:27:45;;;;;;;63.72;24.65;;;2.60;99.90;;;;;;5036231;28;20024;-73
2020/12/06 08:30:20;;;;;;;67.15;24.73;;;2.60;99.90;;;;;;5045836;28;20024;-73
2020/12/06 08:32:59;;;;;;;68.97;24.50;;;2.70;99.90;;;;;;5075849;28;20478;-73
2020/12/06 08:35:48;;;;;;;61.00;25.45;;;2.80;99.90;;;;;;5076197;28;20375;-73
2020/12/06 08:38:14;;;;;;;64.00;24.30;;;2.70;99.90;;;;;;5074990;28;20360;-73
2020/12/06 08:40:57;;;;;;;63.05;22.95;;;2.80;99.90;;;;;;5074077;28;20028;-74
2020/12/06 08:43:23;;;;;;;65.00;24.02;;;2.80;99.90;;;;;;5073162;28;20422;-73
2020/12/06 08:46:06;;;;;;;59.22;22.73;;;2.90;99.90;;;;;;5073111;28;20082;-73
2020/12/06 08:48:31;;;;;;;63.75;23.65;;;3.00;99.90;;;;;;5067356;28;20078;-73
2020/12/06 08:50:57;;;;;;;55.35;22.48;;;3.10;99.90;;;;;;5073628;28;20028;-74
2020/12/06 08:53:23;;;;;;;61.83;22.67;;;3.10;99.90;;;;;;5055653;28;20028;-73
2020/12/06 08:55:49;;;;;;;66.68;24.42;;;3.30;99.90;;;;;;5078488;28;20387;-73
2020/12/06 08:58:28;;;;;;;59.97;23.90;;;3.30;99.90;;;;;;5075640;28;20028;-73
2020/12/06 09:01:00;;;;;;;62.45;25.63;;;3.30;99.90;;;;;;5058638;28;20020;-73
2020/12/06 09:03:25;;;;;;;;;;;3.20;99.90;;;;;;5073992;28;20411;-73
2020/12/06 09:05:51;;;;;;;62.45;23.20;;;3.00;99.90;;;;;;5073261;28;19911;-73
2020/12/06 09:08:17;;;;;;;63.65;24.65;;;2.90;99.90;;;;;;5073548;28;20016;-73
2020/12/06 09:10:42;;;;;;;63.70;25.38;;;3.00;99.90;;;;;;5073301;28;20035;-73
2020/12/06 09:13:08;;;;;;;69.55;25.27;;;3.10;99.90;;;;;;5055278;28;20082;-73
2020/12/06 09:15:33;;;;;;;64.53;24.00;;;3.00;99.90;;;;;;5073018;28;20035;-73
2020/12/06 09:17:59;;;;;;;62.85;23.60;;;3.10;99.90;;;;;;5055298;28;20107;-74
2020/12/06 09:20:25;;;;;;;70.82;26.90;;;3.00;99.90;;;;;;5071506;28;20017;-73
2020/12/06 09:22:50;;;;;;;60.38;23.17;;;3.00;99.90;;;;;;5055548;28;20032;-73
2020/12/06 09:25:16;;;;;;;56.65;24.52;;;3.00;99.90;;;;;;5053134;28;20077;-73
2020/12/06 09:27:42;;;;;;;69.50;29.60;;;3.00;99.90;;;;;;5055068;28;20028;-74
2020/12/06 09:30:08;;;;;;;71.32;28.55;;;3.10;99.90;;;;;;5061469;28;20736;-74
2020/12/06 09:32:33;;;;;;;54.10;21.88;;;3.10;99.90;;;;;;5088920;28;20641;-73
2020/12/06 09:34:59;;;;;;;54.75;24.77;;;3.10;99.90;;;;;;5053497;28;20054;-73
2020/12/06 09:37:25;;;;;;;58.67;24.70;;;3.10;99.90;;;;;;5063310;28;20051;-73
2020/12/06 09:39:53;;;;;;;59.20;24.95;;;3.10;99.90;;;;;;5056562;28;20379;-73
2020/12/06 09:42:21;;;;;;;43.70;20.52;;;3.30;99.90;;;;;;5072426;28;20032;-73
2020/12/06 09:44:49;;;;;;;53.00;22.42;;;3.30;99.90;;;;;;5072669;28;20442;-73
2020/12/06 09:47:15;;;;;;;54.13;23.63;;;3.30;99.90;;;;;;5073230;28;20035;-73
2020/12/06 09:49:41;;;;;;;42.45;20.30;;;3.50;99.90;;;;;;5054762;28;20392;-73
2020/12/06 09:52:06;;;;;;;43.47;20.17;;;3.50;99.90;;;;;;5072223;28;20020;-73
2020/12/06 09:54:32;;;;;;;43.17;19.92;;;3.50;99.90;;;;;;5054623;28;20020;-73
2020/12/06 09:56:58;;;;;;;43.97;20.50;;;3.30;99.90;;;;;;5037934;28;20043;-74
2020/12/06 09:59:24;;;;;;;45.53;19.50;;;3.30;99.90;;;;;;5070935;28;20024;-73
2020/12/06 10:01:49;;;;;;;48.75;21.13;;;3.10;99.90;;;;;;5072297;28;20096;-73
2020/12/06 10:04:15;;;;;;;40.90;18.90;;;3.30;99.90;;;;;;5054310;28;20028;-73
2020/12/06 10:06:41;;;;;;;40.28;18.65;;;3.60;99.90;;;;;;5072602;28;20021;-73
2020/12/06 10:09:10;;;;;;;36.60;17.30;;;3.90;99.90;;;;;;5054327;28;20547;-73
2020/12/06 10:11:35;;;;;;;34.53;16.88;;;4.20;99.90;;;;;;5054528;28;20016;-74
2020/12/06 10:14:01;;;;;;;30.33;16.08;;;4.30;99.90;;;;;;5053777;28;20396;-73
2020/12/06 10:16:27;;;;;;;41.08;20.98;;;4.50;99.90;;;;;;5071746;28;20495;-74
2020/12/06 10:18:54;;;;;;;31.38;17.83;;;4.70;99.90;;;;;;5071858;28;20027;-74
2020/12/06 10:21:20;;;;;;;35.72;16.60;;;4.80;99.90;;;;;;5037362;28;20048;-74
2020/12/06 10:23:46;;;;;;;31.80;16.75;;;4.80;99.90;;;;;;5071853;28;20033;-74
2020/12/06 10:26:12;;;;;;;29.92;15.98;;;4.80;99.90;;;;;;5071879;28;20032;-74
2020/12/06 10:28:38;;;;;;;28.10;16.48;;;4.80;99.90;;;;;;5071721;28;20502;-73
2020/12/06 10:31:03;;;;;;;31.48;16.45;;;4.70;99.90;;;;;;5071431;28;20025;-74
2020/12/06 10:33:29;;;;;;;29.95;15.93;;;4.50;99.90;;;;;;5053996;28;20095;-74
2020/12/06 10:35:55;;;;;;;34.25;16.98;;;4.50;99.90;;;;;;5071434;28;20047;-74
2020/12/06 10:38:21;;;;;;;30.50;16.95;;;4.60;99.90;;;;;;5052760;28;20020;-74
2020/12/06 10:40:46;;;;;;;36.08;17.88;;;4.70;99.90;;;;;;5053660;28;20017;-74
2020/12/06 10:43:12;;;;;;;33.78;16.80;;;4.90;99.90;;;;;;5071369;28;20491;-74
2020/12/06 10:45:38;;;;;;;32.65;16.67;;;4.70;99.90;;;;;;5053244;28;20107;-74
2020/12/06 10:48:04;;;;;;;34.03;17.00;;;4.80;99.90;;;;;;5052806;28;20036;-74
2020/12/06 10:50:30;;;;;;;32.95;18.52;;;4.80;99.90;;;;;;5053347;28;20033;-74
2020/12/06 10:52:56;;;;;;;35.67;19.27;;;4.60;99.90;;;;;;5053090;28;20031;-74
2020/12/06 10:55:24;;;;;;;30.42;16.25;;;4.60;99.90;;;;;;5070918;28;20024;-74
2020/12/06 10:57:54;;;;;;;37.67;20.02;;;4.60;99.90;;;;;;5053453;28;20497;-73
2020/12/06 11:00:20;;;;;;;30.98;17.00;;;4.60;99.90;;;;;;5071042;28;20020;-74
2020/12/06 11:02:45;;;;;;;36.33;17.58;;;4.60;99.90;;;;;;5053409;28;20028;-73
2020/12/06 11:05:12;;;;;;;24.95;13.82;;;4.60;99.90;;;;;;5053222;28;20161;-73
2020/12/06 11:07:38;;;;;;;21.50;12.75;;;4.60;99.90;;;;;;5069913;28;20103;-73
2020/12/06 11:10:04;;;;;;;23.42;12.48;;;4.40;99.90;;;;;;5053103;28;20109;-73
2020/12/06 11:12:30;;;;;;;23.02;12.43;;;4.40;99.90;;;;;;5036048;28;20410;-73
2020/12/06 11:14:55;;;;;;;30.08;15.05;;;4.40;99.90;;;;;;5052946;28;20027;-74
2020/12/06 11:17:21;;;;;;;22.02;12.93;;;4.50;99.90;;;;;;5052919;28;20040;-73
2020/12/06 11:19:47;;;;;;;23.92;14.05;;;4.60;99.90;;;;;;5070991;28;20102;-73
2020/12/06 11:22:12;;;;;;;22.83;12.60;;;4.60;99.90;;;;;;5036336;28;20028;-73
2020/12/06 11:24:38;;;;;;;25.30;12.88;;;4.60;99.90;;;;;;5052920;28;20107;-73
2020/12/06 11:27:04;;;;;;;25.52;13.70;;;4.30;99.90;;;;;;5070877;28;20038;-73
2020/12/06 11:29:30;;;;;;;21.85;12.52;;;4.30;99.90;;;;;;5053116;28;20112;-73
2020/12/06 11:31:55;;;;;;;24.65;11.77;;;4.30;99.90;;;;;;5070930;28;20119;-73
2020/12/06 11:34:21;;;;;;;23.30;13.45;;;4.30;99.90;;;;;;5070866;28;20024;-73
2020/12/06 11:36:49;;;;;;;26.92;13.45;;;4.30;99.90;;;;;;5053159;28;20058;-73
2020/12/06 11:39:15;;;;;;;22.73;12.75;;;4.40;99.90;;;;;;5053173;28;20036;-73
2020/12/06 11:41:41;;;;;;;27.63;14.35;;;4.40;99.90;;;;;;5071291;28;20048;-73
2020/12/06 11:44:07;;;;;;;30.50;14.98;;;4.60;99.90;;;;;;5069807;22;20041;-76
2020/12/06 11:46:33;;;;;;;27.00;14.55;;;4.70;99.90;;;;;;5032613;28;20021;-77
2020/12/06 11:48:58;;;;;;;26.58;12.50;;;4.50;99.90;;;;;;5050858;28;20025;-76
2020/12/06 11:51:24;;;;;;;25.92;12.82;;;4.50;99.90;;;;;;5050860;28;20021;-77
2020/12/06 11:53:50;;;;;;;27.25;12.63;;;4.40;99.90;;;;;;5032849;28;20037;-76
2020/12/06 11:56:15;;;;;;;23.30;11.50;;;4.50;99.90;;;;;;5016348;28;20025;-76
2020/12/06 11:58:44;;;;;;;25.25;14.65;;;4.60;99.90;;;;;;5051635;28;20270;-76
2020/12/06 12:01:10;;;;;;;38.03;18.88;;;4.60;99.90;;;;;;5054829;28;20079;-76
2020/12/06 12:03:36;;;;;;;34.70;18.60;;;4.60;99.90;;;;;;5036773;28;20029;-76
2020/12/06 12:06:03;;;;;;;32.97;17.73;;;4.60;99.90;;;;;;5053481;28;20029;-76
2020/12/06 12:08:29;;;;;;;28.52;15.45;;;4.40;99.90;;;;;;5054546;28;20547;-76
2020/12/06 12:10:54;;;;;;;30.52;14.38;;;4.30;99.90;;;;;;5036846;28;20029;-76
2020/12/06 12:13:20;;;;;;;32.72;14.75;;;4.10;99.90;;;;;;5054153;28;20033;-76
2020/12/06 12:15:46;;;;;;;30.38;15.40;;;4.20;99.90;;;;;;5054563;28;20024;-76
2020/12/06 12:18:11;;;;;;;31.13;15.75;;;4.10;99.90;;;;;;5054226;28;20092;-76
2020/12/06 12:20:37;;;;;;;30.05;15.20;;;4.10;99.90;;;;;;5036892;28;20025;-76
2020/12/06 12:23:03;;;;;;;24.52;13.68;;;4.10;99.90;;;;;;5053912;28;20083;-76
2020/12/06 12:25:29;;;;;;;28.42;13.85;;;4.40;99.90;;;;;;5035559;28;20031;-76
2020/12/06 12:27:54;;;;;;;25.27;14.25;;;4.50;99.90;;;;;;5038227;28;20120;-77
2020/12/06 12:30:20;;;;;;;23.48;12.07;;;4.60;99.90;;;;;;5038999;28;20034;-75
2020/12/06 12:32:46;;;;;;;23.33;12.68;;;4.50;99.90;;;;;;5056042;28;20036;-76
2020/12/06 12:35:12;;;;;;;23.42;12.77;;;4.40;99.90;;;;;;5055666;28;20490;-74
2020/12/06 12:37:37;;;;;;;23.15;12.77;;;4.60;99.90;;;;;;5036040;28;20082;-77